Pacific Phoenix — 9V7612 — position and weather

sailwx.info

Track history (hours):
 
Tides and Currents Weather Stations Pressure Air Temp Water Temp Dewpoint Dewpoint Depression Visibility Wind Speed Wind Dir Waves Ship Positions

Pacific Phoenix

Last reported at 2017-Sep-20 12:18 UTC. Time now 2017-Sep-20 23:47 UTC.
Position N 04°12' W 002°55'.

Length 58 m; draft 4.5 m.

Type: Ship. MMSI: 566075000.

Date/timePositionNaut miles runAvg speedWind from/ knotsBaromVisibWave heightAir tempDewpointWater temp
2017-Sep-20 12:18N 04°12' W 002°55'1 1.4
2017-Sep-20 11:48N 04°12' W 002°54'8 3.5
2017-Sep-20 09:35N 04°20' W 002°55'1 4.6
2017-Sep-20 09:18N 04°21' W 002°55'2 5.9
2017-Sep-20 08:58N 04°22' W 002°53'1 1.6
2017-Sep-20 08:30N 04°22' W 002°52'0 0.6
2017-Sep-20 07:59N 04°22' W 002°52'0 0.3
2017-Sep-20 07:29N 04°22' W 002°52'1 2.2
2017-Sep-20 07:00N 04°23' W 002°52'1 1.8
2017-Sep-20 06:29N 04°24' W 002°53'0 0.7
2017-Sep-20 05:57N 04°24' W 002°53'2 3.7
2017-Sep-20 05:30N 04°26' W 002°54'1 2.7
2017-Sep-20 05:00N 04°27' W 002°54'3 4.9
2017-Sep-20 04:29N 04°29' W 002°55'4 4.6
2017-Sep-20 03:39N 04°33' W 002°56'0 1.6
2017-Sep-20 03:26N 04°33' W 002°56'1 1.6
2017-Sep-20 03:00N 04°34' W 002°56'1 1.5
2017-Sep-20 02:30N 04°35' W 002°56'1 1.4
2017-Sep-20 02:00N 04°35' W 002°56'1 1.4
2017-Sep-20 01:30N 04°36' W 002°57'0 0.5
2017-Sep-20 00:58N 04°36' W 002°57'1 2.2
2017-Sep-20 00:28N 04°35' W 002°56'1 2.3
2017-Sep-19 23:59N 04°34' W 002°56'1 2.2
2017-Sep-19 23:29N 04°33' W 002°56'1 2.2
2017-Sep-19 23:00N 04°32' W 002°56'1 2.1
2017-Sep-19 22:29N 04°31' W 002°55'2 3.1
2017-Sep-19 22:00N 04°30' W 002°55'6 0.3
2017-Sep-19 04:49N 04°34' W 002°51'1 1.7
2017-Sep-19 04:26N 04°34' W 002°51'1 2.0
2017-Sep-19 03:59N 04°35' W 002°52'1 1.2
2017-Sep-19 03:26N 04°36' W 002°52'1 1.2
2017-Sep-19 03:00N 04°36' W 002°52'1 1.3
2017-Sep-19 02:29N 04°37' W 002°52'0 1.0
2017-Sep-19 02:00N 04°37' W 002°52'1 2.4
2017-Sep-19 01:29N 04°35' W 002°52'1 2.3
2017-Sep-19 01:00N 04°34' W 002°52'1 2.2
2017-Sep-19 00:30N 04°33' W 002°52'0 0.2
2017-Sep-19 00:00N 04°33' W 002°52'1 2.8
2017-Sep-18 23:30N 04°34' W 002°52'2 2.9
2017-Sep-18 23:00N 04°36' W 002°52'2 3.1
2017-Sep-18 22:29N 04°34' W 002°52'2 3.1
2017-Sep-18 21:59N 04°33' W 002°52'2 3.6
2017-Sep-18 21:30N 04°31' W 002°52'1 2.7
2017-Sep-18 21:00N 04°32' W 002°52'3 5.5
2017-Sep-18 20:30N 04°35' W 002°52'2 4.5
2017-Sep-18 20:00N 04°37' W 002°53'2 4.9
2017-Sep-18 19:30N 04°35' W 002°52'3 4.9
2017-Sep-18 19:00N 04°33' W 002°50'2 3.7
2017-Sep-18 18:30N 04°31' W 002°50'3 5.5
2017-Sep-18 17:57N 04°29' W 002°53'2 4.7
2017-Sep-18 17:29N 04°28' W 002°54'3 4.6
2017-Sep-18 16:55N 04°31' W 002°55'1 2.5
2017-Sep-18 16:29N 04°30' W 002°56'2 3.4
2017-Sep-18 15:59N 04°31' W 002°54'2 3.6
2017-Sep-18 15:30N 04°32' W 002°54'3 5.7
2017-Sep-18 15:00N 04°35' W 002°54'4 7.2
2017-Sep-18 14:28N 04°37' W 002°57'4 2.6
2017-Sep-18 12:50N 04°33' W 002°56'1 4.4
2017-Sep-18 12:30N 04°31' W 002°56'2 4.3
2017-Sep-18 11:58N 04°29' W 002°56'4 2.6
2017-Sep-18 10:21N 04°30' W 002°51'1 1.4
2017-Sep-18 09:59N 04°30' W 002°51'1 2.8
2017-Sep-18 09:30N 04°31' W 002°52'3 5.0
2017-Sep-18 08:59N 04°32' W 002°54'2 3.3
2017-Sep-18 08:25N 04°34' W 002°54'0 1.2
2017-Sep-18 08:00N 04°34' W 002°53'3 5.6
2017-Sep-18 07:30N 04°32' W 002°51'0 0.7
2017-Sep-18 07:00N 04°31' W 002°51'0 0.6
2017-Sep-18 06:29N 04°31' W 002°52'1 1.3
2017-Sep-18 06:00N 04°31' W 002°51'0 0.8
2017-Sep-18 05:29N 04°31' W 002°52'0 0.3
2017-Sep-18 05:00N 04°31' W 002°52'0 0.5
2017-Sep-18 04:29N 04°31' W 002°52'0 0.5
2017-Sep-18 03:59N 04°30' W 002°52'0 0.2
2017-Sep-18 03:30N 04°30' W 002°52'0 0.1
2017-Sep-18 02:58N 04°30' W 002°52'0 0.5
2017-Sep-18 02:23N 04°30' W 002°52'0 0.4
2017-Sep-18 01:55N 04°30' W 002°53'0 0.3
2017-Sep-18 01:30N 04°30' W 002°53'1 1.4
2017-Sep-18 01:00N 04°31' W 002°53'0 0.2
2017-Sep-18 00:30N 04°31' W 002°53'0 0.4
2017-Sep-17 23:59N 04°31' W 002°53'0 0.2
2017-Sep-17 23:30N 04°31' W 002°53'0 0.3
2017-Sep-17 22:58N 04°31' W 002°53'0 0.6
2017-Sep-17 22:30N 04°31' W 002°53'0 0.5
2017-Sep-17 21:57N 04°31' W 002°54'0 0.6
2017-Sep-17 21:29N 04°31' W 002°54'1 1.1
2017-Sep-17 20:56N 04°30' W 002°54'2 4.3
2017-Sep-17 20:29N 04°31' W 002°52'2 4.4
2017-Sep-17 20:00N 04°33' W 002°52'1 1.7
2017-Sep-17 19:28N 04°34' W 002°52'1 1.8
2017-Sep-17 19:00N 04°35' W 002°52'1 1.7
2017-Sep-17 18:29N 04°36' W 002°52'1 1.7
2017-Sep-17 17:59N 04°37' W 002°52'1 1.6
2017-Sep-17 17:29N 04°36' W 002°52'2 4.5
2017-Sep-17 16:59N 04°34' W 002°52'3 5.8
2017-Sep-17 16:30N 04°31' W 002°52'1 1.9
2017-Sep-17 15:59N 04°32' W 002°51'2 3.6
2017-Sep-17 15:29N 04°34' W 002°51'1 1.4
2017-Sep-17 15:00N 04°34' W 002°51'1 1.5
2017-Sep-17 14:28N 04°35' W 002°51'1 1.5
2017-Sep-17 13:59N 04°36' W 002°52'1 1.3
2017-Sep-17 13:30N 04°36' W 002°52'1 1.5
2017-Sep-17 12:59N 04°37' W 002°51'1 1.1
2017-Sep-17 12:30N 04°36' W 002°51'1 2.7
2017-Sep-17 11:59N 04°35' W 002°51'1 2.8
2017-Sep-17 11:29N 04°34' W 002°51'1 2.4
2017-Sep-17 10:59N 04°33' W 002°52'2 3.6
2017-Sep-17 10:28N 04°34' W 002°53'1 2.9
2017-Sep-17 09:59N 04°35' W 002°52'2 3.1
2017-Sep-17 09:30N 04°36' W 002°51'1 1.4
2017-Sep-17 09:00N 04°35' W 002°52'1 2.8
2017-Sep-17 08:29N 04°34' W 002°53'1 1.3
2017-Sep-17 07:58N 04°34' W 002°53'1 2.7
2017-Sep-17 07:29N 04°35' W 002°52'1 2.7
2017-Sep-17 06:59N 04°36' W 002°52'1 1.3
2017-Sep-17 06:30N 04°35' W 002°51'1 2.5
2017-Sep-17 05:59N 04°34' W 002°52'0 0.4
2017-Sep-17 05:29N 04°34' W 002°52'0 1.0
2017-Sep-17 05:00N 04°35' W 002°52'1 1.0
2017-Sep-17 04:30N 04°35' W 002°52'0 1.0
2017-Sep-17 04:00N 04°36' W 002°52'1 1.0
2017-Sep-17 03:30N 04°36' W 002°52'1 1.0
2017-Sep-17 02:58N 04°37' W 002°52'0 0.7
2017-Sep-17 02:29N 04°37' W 002°52'1 2.7
2017-Sep-17 02:00N 04°36' W 002°52'1 2.7
2017-Sep-17 01:30N 04°34' W 002°51'1 2.6
2017-Sep-17 00:59N 04°33' W 002°51'1 2.5
2017-Sep-17 00:29N 04°32' W 002°52'2 4.6
2017-Sep-16 23:59N 04°32' W 002°54'1 1.6
2017-Sep-16 23:25N 04°32' W 002°55'1 1.2
2017-Sep-16 23:00N 04°32' W 002°55'1 1.2
2017-Sep-16 22:27N 04°31' W 002°54'0 0.7
2017-Sep-16 21:58N 04°31' W 002°54'3 5.4
2017-Sep-16 21:28N 04°33' W 002°52'2 5.0
2017-Sep-16 21:00N 04°35' W 002°52'1 1.6
2017-Sep-16 20:30N 04°35' W 002°53'1 2.7
2017-Sep-16 20:00N 04°34' W 002°52'1 2.5
2017-Sep-16 19:29N 04°32' W 002°52'1 2.2
2017-Sep-16 19:00N 04°31' W 002°51'1 1.9
2017-Sep-16 18:30N 04°32' W 002°51'1 1.8
2017-Sep-16 17:59N 04°33' W 002°51'1 1.8
2017-Sep-16 17:29N 04°34' W 002°51'3 5.7
2017-Sep-16 16:59N 04°32' W 002°54'3 7.0
2017-Sep-16 16:30N 04°32' W 002°57'3 6.6
2017-Sep-16 16:00N 04°35' W 002°57'1 1.6
2017-Sep-16 15:29N 04°36' W 002°56'1 3.0
2017-Sep-16 15:00N 04°35' W 002°56'1 2.8
2017-Sep-16 14:30N 04°33' W 002°57'1 2.8
2017-Sep-16 14:00N 04°32' W 002°57'1 2.8
2017-Sep-16 13:29N 04°30' W 002°57'1 2.9
2017-Sep-16 13:00N 04°29' W 002°58'0 0.8
2017-Sep-16 12:30N 04°30' W 002°58'1 1.7
2017-Sep-16 12:00N 04°30' W 002°57'1 2.7
2017-Sep-16 11:30N 04°31' W 002°56'1 2.2
2017-Sep-16 11:00N 04°30' W 002°56'3 5.2
2017-Sep-16 10:30N 04°27' W 002°56'3 5.5
2017-Sep-16 09:59N 04°25' W 002°56'2 3.0
2017-Sep-16 09:29N 04°23' W 002°56'2 3.5
2017-Sep-16 08:59N 04°25' W 002°57'1 2.4
2017-Sep-16 08:30N 04°24' W 002°56'2 3.1
2017-Sep-16 08:00N 04°23' W 002°55'2 3.4
2017-Sep-16 07:30N 04°21' W 002°55'1 2.6
2017-Sep-16 07:00N 04°20' W 002°55'2 2.6
2017-Sep-16 06:16N 04°18' W 002°54'1 2.2
2017-Sep-16 06:00N 04°17' W 002°54'2 4.2
2017-Sep-16 05:30N 04°15' W 002°54'1 2.5
2017-Sep-16 04:59N 04°14' W 002°54'1 2.2
2017-Sep-16 04:29N 04°13' W 002°54'2 3.3
2017-Sep-16 03:54N 04°11' W 002°53'2 3.6
2017-Sep-16 03:20N 04°09' W 002°53'1 3.6
2017-Sep-16 02:59N 04°08' W 002°53'2 3.6
2017-Sep-16 02:30N 04°06' W 002°53'14 1.1
2017-Sep-15 13:51N 04°18' W 002°46'0 1.3
2017-Sep-15 13:30N 04°18' W 002°46'1 1.4
2017-Sep-15 13:00N 04°19' W 002°46'1 2.6
2017-Sep-15 12:29N 04°20' W 002°46'2 3.1
2017-Sep-15 11:59N 04°22' W 002°47'2 3.4
2017-Sep-15 11:30N 04°23' W 002°49'4 7.6
2017-Sep-15 11:00N 04°26' W 002°50'4 7.4
2017-Sep-15 10:29N 04°30' W 002°52'4 7.4
2017-Sep-15 10:00N 04°33' W 002°53'4 7.2
2017-Sep-15 09:29N 04°36' W 002°55'1 3.1
2017-Sep-15 09:00N 04°37' W 002°54'1 2.5
2017-Sep-15 08:28N 04°36' W 002°54'1 1.4
2017-Sep-15 07:59N 04°35' W 002°54'1 2.0
2017-Sep-15 07:19N 04°35' W 002°53'1 1.7
2017-Sep-15 07:00N 04°35' W 002°53'1 2.6
2017-Sep-15 06:30N 04°35' W 002°54'2 3.4
2017-Sep-15 06:00N 04°34' W 002°56'1 1.3
2017-Sep-15 05:29N 04°35' W 002°56'1 1.4
2017-Sep-15 05:00N 04°35' W 002°56'1 2.0
2017-Sep-15 04:30N 04°36' W 002°55'3 3.4
2017-Sep-15 03:39N 04°37' W 002°52'1 7.2
2017-Sep-15 03:29N 04°37' W 002°54'3 5.2
2017-Sep-15 02:59N 04°35' W 002°56'1 1.9
2017-Sep-15 02:30N 04°34' W 002°55'0 0.9
2017-Sep-15 02:00N 04°35' W 002°55'1 1.8
2017-Sep-15 01:29N 04°35' W 002°55'1 1.8
2017-Sep-15 00:59N 04°36' W 002°55'1 1.8
2017-Sep-15 00:30N 04°37' W 002°55'1 1.4
2017-Sep-15 00:00N 04°37' W 002°55'1 2.8
2017-Sep-14 23:30N 04°35' W 002°55'3 5.2
2017-Sep-14 22:59N 04°32' W 002°55'2 4.5
2017-Sep-14 22:30N 04°30' W 002°55'2 4.2
2017-Sep-14 22:00N 04°32' W 002°56'2 4.0
2017-Sep-14 21:27N 04°34' W 002°56'1 1.8
2017-Sep-14 21:00N 04°35' W 002°56'1 1.7
2017-Sep-14 20:29N 04°36' W 002°55'1 1.7
2017-Sep-14 20:00N 04°37' W 002°55'1 1.0
2017-Sep-14 19:28N 04°37' W 002°55'1 2.2
2017-Sep-14 19:00N 04°36' W 002°56'1 2.4
2017-Sep-14 18:29N 04°35' W 002°56'1 1.3
2017-Sep-14 18:00N 04°34' W 002°56'2 2.6
2017-Sep-14 17:12N 04°37' W 002°56'5 3.6
2017-Sep-14 15:57N 04°37' W 002°51'1 2.4
2017-Sep-14 15:30N 04°36' W 002°52'0 0.6
2017-Sep-14 14:58N 04°37' W 002°52'1 1.7
2017-Sep-14 14:30N 04°36' W 002°52'1 1.6
2017-Sep-14 13:59N 04°35' W 002°52'1 3.1
2017-Sep-14 13:30N 04°33' W 002°53'1 1.8
2017-Sep-14 12:57N 04°33' W 002°53'2 3.7
2017-Sep-14 12:30N 04°31' W 002°53'3 6.3
2017-Sep-14 11:59N 04°32' W 002°50'3 5.2
2017-Sep-14 11:26N 04°30' W 002°48'2 4.8
2017-Sep-14 11:00N 04°29' W 002°47'2 4.7
2017-Sep-14 10:29N 04°26' W 002°47'2 4.2
2017-Sep-14 09:59N 04°24' W 002°47'1 1.7
2017-Sep-14 09:29N 04°24' W 002°47'3 6.1
2017-Sep-14 09:00N 04°25' W 002°49'1 1.8
2017-Sep-14 08:30N 04°24' W 002°49'2 2.9
2017-Sep-14 07:59N 04°23' W 002°49'1 2.6
2017-Sep-14 07:30N 04°22' W 002°49'1 2.7
2017-Sep-14 06:59N 04°20' W 002°49'1 2.6
2017-Sep-14 06:29N 04°19' W 002°49'1 2.2
2017-Sep-14 05:59N 04°18' W 002°49'2 3.5
2017-Sep-14 05:30N 04°16' W 002°49'1 2.7
2017-Sep-14 05:00N 04°15' W 002°49'1 2.9
2017-Sep-14 04:30N 04°13' W 002°49'2 3.1
2017-Sep-14 03:59N 04°12' W 002°49'2 3.1
2017-Sep-14 03:25N 04°10' W 002°49'1 2.8
2017-Sep-14 03:00N 04°09' W 002°49'1 2.6
2017-Sep-14 02:29N 04°08' W 002°49'1 2.8
2017-Sep-14 01:59N 04°06' W 002°49'2 3.0
2017-Sep-14 01:21N 04°04' W 002°49'1 3.1
2017-Sep-14 00:59N 04°03' W 002°49'2 3.1
2017-Sep-14 00:28N 04°02' W 002°49'10 1.1
2017-Sep-13 15:31N 04°11' W 002°47'0 3.4
2017-Sep-13 15:29N 04°11' W 002°47'2 3.3
2017-Sep-13 14:58N 04°13' W 002°47'2 5.3
2017-Sep-13 14:30N 04°15' W 002°46'3 5.0
2017-Sep-13 13:59N 04°18' W 002°45'1 1.9
2017-Sep-13 13:29N 04°18' W 002°45'0 0.8
2017-Sep-13 13:00N 04°19' W 002°45'1 2.0
2017-Sep-13 12:29N 04°20' W 002°45'4 7.7
2017-Sep-13 11:59N 04°23' W 002°47'3 4.5
2017-Sep-13 11:22N 04°26' W 002°48'1 3.5
2017-Sep-13 11:00N 04°27' W 002°49'7 3.5
2017-Sep-13 08:59N 04°33' W 002°53'1 2.1
2017-Sep-13 08:28N 04°34' W 002°52'2 1.9
2017-Sep-13 07:27N 04°36' W 002°52'1 2.0
2017-Sep-13 07:00N 04°37' W 002°52'1 1.6
2017-Sep-13 06:30N 04°36' W 002°52'2 2.6
2017-Sep-13 05:51N 04°34' W 002°53'1 1.9
2017-Sep-13 05:30N 04°34' W 002°53'0 0.5
2017-Sep-13 04:53N 04°33' W 002°53'1 2.5
2017-Sep-13 04:24N 04°35' W 002°52'1 1.7
2017-Sep-13 03:50N 04°35' W 002°53'1 2.5
2017-Sep-13 03:29N 04°36' W 002°54'2 1.5
2017-Sep-13 02:10N 04°34' W 002°53'2 4.9
2017-Sep-13 01:48N 04°34' W 002°51'1 2.1
2017-Sep-13 01:29N 04°34' W 002°51'1 2.8
2017-Sep-13 00:59N 04°33' W 002°52'2 1.9
2017-Sep-13 00:07N 04°32' W 002°51'0 2.6
2017-Sep-12 23:58N 04°31' W 002°51'1 1.6
2017-Sep-12 23:30N 04°32' W 002°51'3 5.7
2017-Sep-12 22:59N 04°35' W 002°52'1 2.8
2017-Sep-12 22:29N 04°36' W 002°52'1 1.2
2017-Sep-12 21:59N 04°36' W 002°53'0 0.5
2017-Sep-12 21:29N 04°36' W 002°53'2 3.7
2017-Sep-12 20:59N 04°35' W 002°51'0 0.8
2017-Sep-12 20:28N 04°35' W 002°52'1 1.7
2017-Sep-12 19:59N 04°34' W 002°51'1 1.5
2017-Sep-12 19:29N 04°35' W 002°51'1 1.9
2017-Sep-12 19:00N 04°35' W 002°52'1 1.9
2017-Sep-12 18:29N 04°36' W 002°52'1 1.5
2017-Sep-12 17:59N 04°37' W 002°52'1 1.6
2017-Sep-12 17:30N 04°36' W 002°52'1 2.0
2017-Sep-12 17:00N 04°35' W 002°53'1 1.0
2017-Sep-12 16:27N 04°35' W 002°53'1 1.5
2017-Sep-12 16:00N 04°35' W 002°53'0 0.5
2017-Sep-12 15:30N 04°36' W 002°53'0 0.0
2017-Sep-12 14:59N 04°36' W 002°53'0 0.2
2017-Sep-12 14:29N 04°36' W 002°53'0 0.0
2017-Sep-12 13:59N 04°36' W 002°53'0 0.0
2017-Sep-12 13:29N 04°36' W 002°53'0 0.0
2017-Sep-12 12:12N 04°36' W 002°53'0 0.0
2017-Sep-12 11:59N 04°36' W 002°53'0 0.0
2017-Sep-12 11:29N 04°36' W 002°53'0 0.0
2017-Sep-12 10:59N 04°36' W 002°53'0 0.0
2017-Sep-12 10:13N 04°36' W 002°53'0 0.0
2017-Sep-12 09:56N 04°36' W 002°53'0 0.0
2017-Sep-12 09:29N 04°36' W 002°53'0 0.1
2017-Sep-12 08:55N 04°36' W 002°53'0 0.2
2017-Sep-12 08:28N 04°36' W 002°53'0 0.2
2017-Sep-12 07:59N 04°36' W 002°53'1 2.7
2017-Sep-12 07:30N 04°35' W 002°54'3 2.3
2017-Sep-12 06:15N 04°37' W 002°56'0 0.8
2017-Sep-12 05:58N 04°37' W 002°56'2 0.5
2017-Sep-12 02:41N 04°37' W 002°54'0 1.8
2017-Sep-12 02:30N 04°37' W 002°54'1 0.4
2017-Sep-11 23:44N 04°37' W 002°55'4 0.7
2017-Sep-11 18:17N 04°36' W 002°52'1 4.5
2017-Sep-11 17:59N 04°36' W 002°53'0 0.1
2017-Sep-11 17:30N 04°36' W 002°53'0 0.1
2017-Sep-11 16:15N 04°36' W 002°53'0 0.1
2017-Sep-11 16:00N 04°36' W 002°53'0 0.0
2017-Sep-11 15:30N 04°36' W 002°53'0 0.0
2017-Sep-11 15:00N 04°36' W 002°53'0 0.0
2017-Sep-11 14:29N 04°36' W 002°53'0 0.0
2017-Sep-11 13:59N 04°36' W 002°53'0 0.0
2017-Sep-11 13:25N 04°36' W 002°53'1 1.1
2017-Sep-11 12:13N 04°36' W 002°54'0 1.8
2017-Sep-11 11:58N 04°36' W 002°54'0 0.5
2017-Sep-11 11:29N 04°37' W 002°54'0 0.2
2017-Sep-11 10:40N 04°36' W 002°54'0 2.4
2017-Sep-11 10:29N 04°37' W 002°54'1 0.9
2017-Sep-11 09:29N 04°36' W 002°54'1 1.5
2017-Sep-11 09:00N 04°37' W 002°54'1 1.5
2017-Sep-11 08:29N 04°36' W 002°54'2 0.5
2017-Sep-11 05:32N 04°37' W 002°56'0 1.2
2017-Sep-11 05:30N 04°37' W 002°56'1 1.2
2017-Sep-11 05:00N 04°37' W 002°56'4 0.5
2017-Sep-10 21:19N 04°36' W 002°52'3 1.8
2017-Sep-10 19:30N 04°37' W 002°55'1 1.9
2017-Sep-10 18:50N 04°38' W 002°55'1 2.4
2017-Sep-10 18:30N 04°39' W 002°55'2 4.5
2017-Sep-10 18:00N 04°36' W 002°56'1 2.1
2017-Sep-10 17:29N 04°36' W 002°55'1 2.2
2017-Sep-10 17:00N 04°36' W 002°54'1 1.3
2017-Sep-10 16:29N 04°36' W 002°54'1 1.2
2017-Sep-10 16:00N 04°35' W 002°54'1 0.6
2017-Sep-10 14:35N 04°34' W 002°55'1 1.1
2017-Sep-10 13:54N 04°35' W 002°56'1 2.5
2017-Sep-10 13:26N 04°36' W 002°56'1 2.5
2017-Sep-10 12:59N 04°37' W 002°56'1 1.1
2017-Sep-10 12:24N 04°37' W 002°56'  
Track history (hours):
 
Tides and Currents Weather Stations Pressure Air Temp Water Temp Dewpoint Dewpoint Depression Visibility Wind Speed Wind Dir Waves Ship Positions

Pacific Phoenix

Last reported at 2017-Sep-20 12:18 UTC. Time now 2017-Sep-20 23:47 UTC.
Position N 04°12' W 002°55'.

Length 58 m; draft 4.5 m.

Type: Ship. MMSI: 566075000.

Date/timePositionNaut miles runAvg speedWind from/ knotsBaromVisibWave heightAir tempDewpointWater temp
2017-Sep-20 12:18N 04°12' W 002°55'1 1.4
2017-Sep-20 11:48N 04°12' W 002°54'8 3.5
2017-Sep-20 09:35N 04°20' W 002°55'1 4.6
2017-Sep-20 09:18N 04°21' W 002°55'2 5.9
2017-Sep-20 08:58N 04°22' W 002°53'1 1.6
2017-Sep-20 08:30N 04°22' W 002°52'0 0.6
2017-Sep-20 07:59N 04°22' W 002°52'0 0.3
2017-Sep-20 07:29N 04°22' W 002°52'1 2.2
2017-Sep-20 07:00N 04°23' W 002°52'1 1.8
2017-Sep-20 06:29N 04°24' W 002°53'0 0.7
2017-Sep-20 05:57N 04°24' W 002°53'2 3.7
2017-Sep-20 05:30N 04°26' W 002°54'1 2.7
2017-Sep-20 05:00N 04°27' W 002°54'3 4.9
2017-Sep-20 04:29N 04°29' W 002°55'4 4.6
2017-Sep-20 03:39N 04°33' W 002°56'0 1.6
2017-Sep-20 03:26N 04°33' W 002°56'1 1.6
2017-Sep-20 03:00N 04°34' W 002°56'1 1.5
2017-Sep-20 02:30N 04°35' W 002°56'1 1.4
2017-Sep-20 02:00N 04°35' W 002°56'1 1.4
2017-Sep-20 01:30N 04°36' W 002°57'0 0.5
2017-Sep-20 00:58N 04°36' W 002°57'1 2.2
2017-Sep-20 00:28N 04°35' W 002°56'1 2.3
2017-Sep-19 23:59N 04°34' W 002°56'1 2.2
2017-Sep-19 23:29N 04°33' W 002°56'1 2.2
2017-Sep-19 23:00N 04°32' W 002°56'1 2.1
2017-Sep-19 22:29N 04°31' W 002°55'2 3.1
2017-Sep-19 22:00N 04°30' W 002°55'6 0.3
2017-Sep-19 04:49N 04°34' W 002°51'1 1.7
2017-Sep-19 04:26N 04°34' W 002°51'1 2.0
2017-Sep-19 03:59N 04°35' W 002°52'1 1.2
2017-Sep-19 03:26N 04°36' W 002°52'1 1.2
2017-Sep-19 03:00N 04°36' W 002°52'1 1.3
2017-Sep-19 02:29N 04°37' W 002°52'0 1.0
2017-Sep-19 02:00N 04°37' W 002°52'1 2.4
2017-Sep-19 01:29N 04°35' W 002°52'1 2.3
2017-Sep-19 01:00N 04°34' W 002°52'1 2.2
2017-Sep-19 00:30N 04°33' W 002°52'0 0.2
2017-Sep-19 00:00N 04°33' W 002°52'1 2.8
2017-Sep-18 23:30N 04°34' W 002°52'2 2.9
2017-Sep-18 23:00N 04°36' W 002°52'2 3.1
2017-Sep-18 22:29N 04°34' W 002°52'2 3.1
2017-Sep-18 21:59N 04°33' W 002°52'2 3.6
2017-Sep-18 21:30N 04°31' W 002°52'1 2.7
2017-Sep-18 21:00N 04°32' W 002°52'3 5.5
2017-Sep-18 20:30N 04°35' W 002°52'2 4.5
2017-Sep-18 20:00N 04°37' W 002°53'2 4.9
2017-Sep-18 19:30N 04°35' W 002°52'3 4.9
2017-Sep-18 19:00N 04°33' W 002°50'2 3.7
2017-Sep-18 18:30N 04°31' W 002°50'3 5.5
2017-Sep-18 17:57N 04°29' W 002°53'2 4.7
2017-Sep-18 17:29N 04°28' W 002°54'3 4.6
2017-Sep-18 16:55N 04°31' W 002°55'1 2.5
2017-Sep-18 16:29N 04°30' W 002°56'2 3.4
2017-Sep-18 15:59N 04°31' W 002°54'2 3.6
2017-Sep-18 15:30N 04°32' W 002°54'3 5.7
2017-Sep-18 15:00N 04°35' W 002°54'4 7.2
2017-Sep-18 14:28N 04°37' W 002°57'4 2.6
2017-Sep-18 12:50N 04°33' W 002°56'1 4.4
2017-Sep-18 12:30N 04°31' W 002°56'2 4.3
2017-Sep-18 11:58N 04°29' W 002°56'4 2.6
2017-Sep-18 10:21N 04°30' W 002°51'1 1.4
2017-Sep-18 09:59N 04°30' W 002°51'1 2.8
2017-Sep-18 09:30N 04°31' W 002°52'3 5.0
2017-Sep-18 08:59N 04°32' W 002°54'2 3.3
2017-Sep-18 08:25N 04°34' W 002°54'0 1.2
2017-Sep-18 08:00N 04°34' W 002°53'3 5.6
2017-Sep-18 07:30N 04°32' W 002°51'0 0.7
2017-Sep-18 07:00N 04°31' W 002°51'0 0.6
2017-Sep-18 06:29N 04°31' W 002°52'1 1.3
2017-Sep-18 06:00N 04°31' W 002°51'0 0.8
2017-Sep-18 05:29N 04°31' W 002°52'0 0.3
2017-Sep-18 05:00N 04°31' W 002°52'0 0.5
2017-Sep-18 04:29N 04°31' W 002°52'0 0.5
2017-Sep-18 03:59N 04°30' W 002°52'0 0.2
2017-Sep-18 03:30N 04°30' W 002°52'0 0.1
2017-Sep-18 02:58N 04°30' W 002°52'0 0.5
2017-Sep-18 02:23N 04°30' W 002°52'0 0.4
2017-Sep-18 01:55N 04°30' W 002°53'0 0.3
2017-Sep-18 01:30N 04°30' W 002°53'1 1.4
2017-Sep-18 01:00N 04°31' W 002°53'0 0.2
2017-Sep-18 00:30N 04°31' W 002°53'0 0.4
2017-Sep-17 23:59N 04°31' W 002°53'0 0.2
2017-Sep-17 23:30N 04°31' W 002°53'0 0.3
2017-Sep-17 22:58N 04°31' W 002°53'0 0.6
2017-Sep-17 22:30N 04°31' W 002°53'0 0.5
2017-Sep-17 21:57N 04°31' W 002°54'0 0.6
2017-Sep-17 21:29N 04°31' W 002°54'1 1.1
2017-Sep-17 20:56N 04°30' W 002°54'2 4.3
2017-Sep-17 20:29N 04°31' W 002°52'2 4.4
2017-Sep-17 20:00N 04°33' W 002°52'1 1.7
2017-Sep-17 19:28N 04°34' W 002°52'1 1.8
2017-Sep-17 19:00N 04°35' W 002°52'1 1.7
2017-Sep-17 18:29N 04°36' W 002°52'1 1.7
2017-Sep-17 17:59N 04°37' W 002°52'1 1.6
2017-Sep-17 17:29N 04°36' W 002°52'2 4.5
2017-Sep-17 16:59N 04°34' W 002°52'3 5.8
2017-Sep-17 16:30N 04°31' W 002°52'1 1.9
2017-Sep-17 15:59N 04°32' W 002°51'2 3.6
2017-Sep-17 15:29N 04°34' W 002°51'1 1.4
2017-Sep-17 15:00N 04°34' W 002°51'1 1.5
2017-Sep-17 14:28N 04°35' W 002°51'1 1.5
2017-Sep-17 13:59N 04°36' W 002°52'1 1.3
2017-Sep-17 13:30N 04°36' W 002°52'1 1.5
2017-Sep-17 12:59N 04°37' W 002°51'1 1.1
2017-Sep-17 12:30N 04°36' W 002°51'1 2.7
2017-Sep-17 11:59N 04°35' W 002°51'1 2.8
2017-Sep-17 11:29N 04°34' W 002°51'1 2.4
2017-Sep-17 10:59N 04°33' W 002°52'2 3.6
2017-Sep-17 10:28N 04°34' W 002°53'1 2.9
2017-Sep-17 09:59N 04°35' W 002°52'2 3.1
2017-Sep-17 09:30N 04°36' W 002°51'1 1.4
2017-Sep-17 09:00N 04°35' W 002°52'1 2.8
2017-Sep-17 08:29N 04°34' W 002°53'1 1.3
2017-Sep-17 07:58N 04°34' W 002°53'1 2.7
2017-Sep-17 07:29N 04°35' W 002°52'1 2.7
2017-Sep-17 06:59N 04°36' W 002°52'1 1.3
2017-Sep-17 06:30N 04°35' W 002°51'1 2.5
2017-Sep-17 05:59N 04°34' W 002°52'0 0.4
2017-Sep-17 05:29N 04°34' W 002°52'0 1.0
2017-Sep-17 05:00N 04°35' W 002°52'1 1.0
2017-Sep-17 04:30N 04°35' W 002°52'0 1.0
2017-Sep-17 04:00N 04°36' W 002°52'1 1.0
2017-Sep-17 03:30N 04°36' W 002°52'1 1.0
2017-Sep-17 02:58N 04°37' W 002°52'0 0.7
2017-Sep-17 02:29N 04°37' W 002°52'1 2.7
2017-Sep-17 02:00N 04°36' W 002°52'1 2.7
2017-Sep-17 01:30N 04°34' W 002°51'1 2.6
2017-Sep-17 00:59N 04°33' W 002°51'1 2.5
2017-Sep-17 00:29N 04°32' W 002°52'2 4.6
2017-Sep-16 23:59N 04°32' W 002°54'1 1.6
2017-Sep-16 23:25N 04°32' W 002°55'1 1.2
2017-Sep-16 23:00N 04°32' W 002°55'1 1.2
2017-Sep-16 22:27N 04°31' W 002°54'0 0.7
2017-Sep-16 21:58N 04°31' W 002°54'3 5.4
2017-Sep-16 21:28N 04°33' W 002°52'2 5.0
2017-Sep-16 21:00N 04°35' W 002°52'1 1.6
2017-Sep-16 20:30N 04°35' W 002°53'1 2.7
2017-Sep-16 20:00N 04°34' W 002°52'1 2.5
2017-Sep-16 19:29N 04°32' W 002°52'1 2.2
2017-Sep-16 19:00N 04°31' W 002°51'1 1.9
2017-Sep-16 18:30N 04°32' W 002°51'1 1.8
2017-Sep-16 17:59N 04°33' W 002°51'1 1.8
2017-Sep-16 17:29N 04°34' W 002°51'3 5.7
2017-Sep-16 16:59N 04°32' W 002°54'3 7.0
2017-Sep-16 16:30N 04°32' W 002°57'3 6.6
2017-Sep-16 16:00N 04°35' W 002°57'1 1.6
2017-Sep-16 15:29N 04°36' W 002°56'1 3.0
2017-Sep-16 15:00N 04°35' W 002°56'1 2.8
2017-Sep-16 14:30N 04°33' W 002°57'1 2.8
2017-Sep-16 14:00N 04°32' W 002°57'1 2.8
2017-Sep-16 13:29N 04°30' W 002°57'1 2.9
2017-Sep-16 13:00N 04°29' W 002°58'0 0.8
2017-Sep-16 12:30N 04°30' W 002°58'1 1.7
2017-Sep-16 12:00N 04°30' W 002°57'1 2.7
2017-Sep-16 11:30N 04°31' W 002°56'1 2.2
2017-Sep-16 11:00N 04°30' W 002°56'3 5.2
2017-Sep-16 10:30N 04°27' W 002°56'3 5.5
2017-Sep-16 09:59N 04°25' W 002°56'2 3.0
2017-Sep-16 09:29N 04°23' W 002°56'2 3.5
2017-Sep-16 08:59N 04°25' W 002°57'1 2.4
2017-Sep-16 08:30N 04°24' W 002°56'2 3.1
2017-Sep-16 08:00N 04°23' W 002°55'2 3.4
2017-Sep-16 07:30N 04°21' W 002°55'1 2.6
2017-Sep-16 07:00N 04°20' W 002°55'2 2.6
2017-Sep-16 06:16N 04°18' W 002°54'1 2.2
2017-Sep-16 06:00N 04°17' W 002°54'2 4.2
2017-Sep-16 05:30N 04°15' W 002°54'1 2.5
2017-Sep-16 04:59N 04°14' W 002°54'1 2.2
2017-Sep-16 04:29N 04°13' W 002°54'2 3.3
2017-Sep-16 03:54N 04°11' W 002°53'2 3.6
2017-Sep-16 03:20N 04°09' W 002°53'1 3.6
2017-Sep-16 02:59N 04°08' W 002°53'2 3.6
2017-Sep-16 02:30N 04°06' W 002°53'14 1.1
2017-Sep-15 13:51N 04°18' W 002°46'0 1.3
2017-Sep-15 13:30N 04°18' W 002°46'1 1.4
2017-Sep-15 13:00N 04°19' W 002°46'1 2.6
2017-Sep-15 12:29N 04°20' W 002°46'2 3.1
2017-Sep-15 11:59N 04°22' W 002°47'2 3.4
2017-Sep-15 11:30N 04°23' W 002°49'4 7.6
2017-Sep-15 11:00N 04°26' W 002°50'4 7.4
2017-Sep-15 10:29N 04°30' W 002°52'4 7.4
2017-Sep-15 10:00N 04°33' W 002°53'4 7.2
2017-Sep-15 09:29N 04°36' W 002°55'1 3.1
2017-Sep-15 09:00N 04°37' W 002°54'1 2.5
2017-Sep-15 08:28N 04°36' W 002°54'1 1.4
2017-Sep-15 07:59N 04°35' W 002°54'1 2.0
2017-Sep-15 07:19N 04°35' W 002°53'1 1.7
2017-Sep-15 07:00N 04°35' W 002°53'1 2.6
2017-Sep-15 06:30N 04°35' W 002°54'2 3.4
2017-Sep-15 06:00N 04°34' W 002°56'1 1.3
2017-Sep-15 05:29N 04°35' W 002°56'1 1.4
2017-Sep-15 05:00N 04°35' W 002°56'1 2.0
2017-Sep-15 04:30N 04°36' W 002°55'3 3.4
2017-Sep-15 03:39N 04°37' W 002°52'1 7.2
2017-Sep-15 03:29N 04°37' W 002°54'3 5.2
2017-Sep-15 02:59N 04°35' W 002°56'1 1.9
2017-Sep-15 02:30N 04°34' W 002°55'0 0.9
2017-Sep-15 02:00N 04°35' W 002°55'1 1.8
2017-Sep-15 01:29N 04°35' W 002°55'1 1.8
2017-Sep-15 00:59N 04°36' W 002°55'1 1.8
2017-Sep-15 00:30N 04°37' W 002°55'1 1.4
2017-Sep-15 00:00N 04°37' W 002°55'1 2.8
2017-Sep-14 23:30N 04°35' W 002°55'3 5.2
2017-Sep-14 22:59N 04°32' W 002°55'2 4.5
2017-Sep-14 22:30N 04°30' W 002°55'2 4.2
2017-Sep-14 22:00N 04°32' W 002°56'2 4.0
2017-Sep-14 21:27N 04°34' W 002°56'1 1.8
2017-Sep-14 21:00N 04°35' W 002°56'1 1.7
2017-Sep-14 20:29N 04°36' W 002°55'1 1.7
2017-Sep-14 20:00N 04°37' W 002°55'1 1.0
2017-Sep-14 19:28N 04°37' W 002°55'1 2.2
2017-Sep-14 19:00N 04°36' W 002°56'1 2.4
2017-Sep-14 18:29N 04°35' W 002°56'1 1.3
2017-Sep-14 18:00N 04°34' W 002°56'2 2.6
2017-Sep-14 17:12N 04°37' W 002°56'5 3.6
2017-Sep-14 15:57N 04°37' W 002°51'1 2.4
2017-Sep-14 15:30N 04°36' W 002°52'0 0.6
2017-Sep-14 14:58N 04°37' W 002°52'1 1.7
2017-Sep-14 14:30N 04°36' W 002°52'1 1.6
2017-Sep-14 13:59N 04°35' W 002°52'1 3.1
2017-Sep-14 13:30N 04°33' W 002°53'1 1.8
2017-Sep-14 12:57N 04°33' W 002°53'2 3.7
2017-Sep-14 12:30N 04°31' W 002°53'3 6.3
2017-Sep-14 11:59N 04°32' W 002°50'3 5.2
2017-Sep-14 11:26N 04°30' W 002°48'2 4.8
2017-Sep-14 11:00N 04°29' W 002°47'2 4.7
2017-Sep-14 10:29N 04°26' W 002°47'2 4.2
2017-Sep-14 09:59N 04°24' W 002°47'1 1.7
2017-Sep-14 09:29N 04°24' W 002°47'3 6.1
2017-Sep-14 09:00N 04°25' W 002°49'1 1.8
2017-Sep-14 08:30N 04°24' W 002°49'2 2.9
2017-Sep-14 07:59N 04°23' W 002°49'1 2.6
2017-Sep-14 07:30N 04°22' W 002°49'1 2.7
2017-Sep-14 06:59N 04°20' W 002°49'1 2.6
2017-Sep-14 06:29N 04°19' W 002°49'1 2.2
2017-Sep-14 05:59N 04°18' W 002°49'2 3.5
2017-Sep-14 05:30N 04°16' W 002°49'1 2.7
2017-Sep-14 05:00N 04°15' W 002°49'1 2.9
2017-Sep-14 04:30N 04°13' W 002°49'2 3.1
2017-Sep-14 03:59N 04°12' W 002°49'2 3.1
2017-Sep-14 03:25N 04°10' W 002°49'1 2.8
2017-Sep-14 03:00N 04°09' W 002°49'1 2.6
2017-Sep-14 02:29N 04°08' W 002°49'1 2.8
2017-Sep-14 01:59N 04°06' W 002°49'2 3.0
2017-Sep-14 01:21N 04°04' W 002°49'1 3.1
2017-Sep-14 00:59N 04°03' W 002°49'2 3.1
2017-Sep-14 00:28N 04°02' W 002°49'10 1.1
2017-Sep-13 15:31N 04°11' W 002°47'0 3.4
2017-Sep-13 15:29N 04°11' W 002°47'2 3.3
2017-Sep-13 14:58N 04°13' W 002°47'2 5.3
2017-Sep-13 14:30N 04°15' W 002°46'3 5.0
2017-Sep-13 13:59N 04°18' W 002°45'1 1.9
2017-Sep-13 13:29N 04°18' W 002°45'0 0.8
2017-Sep-13 13:00N 04°19' W 002°45'1 2.0
2017-Sep-13 12:29N 04°20' W 002°45'4 7.7
2017-Sep-13 11:59N 04°23' W 002°47'3 4.5
2017-Sep-13 11:22N 04°26' W 002°48'1 3.5
2017-Sep-13 11:00N 04°27' W 002°49'7 3.5
2017-Sep-13 08:59N 04°33' W 002°53'1 2.1
2017-Sep-13 08:28N 04°34' W 002°52'2 1.9
2017-Sep-13 07:27N 04°36' W 002°52'1 2.0
2017-Sep-13 07:00N 04°37' W 002°52'1 1.6
2017-Sep-13 06:30N 04°36' W 002°52'2 2.6
2017-Sep-13 05:51N 04°34' W 002°53'1 1.9
2017-Sep-13 05:30N 04°34' W 002°53'0 0.5
2017-Sep-13 04:53N 04°33' W 002°53'1 2.5
2017-Sep-13 04:24N 04°35' W 002°52'1 1.7
2017-Sep-13 03:50N 04°35' W 002°53'1 2.5
2017-Sep-13 03:29N 04°36' W 002°54'2 1.5
2017-Sep-13 02:10N 04°34' W 002°53'2 4.9
2017-Sep-13 01:48N 04°34' W 002°51'1 2.1
2017-Sep-13 01:29N 04°34' W 002°51'1 2.8
2017-Sep-13 00:59N 04°33' W 002°52'2 1.9
2017-Sep-13 00:07N 04°32' W 002°51'0 2.6
2017-Sep-12 23:58N 04°31' W 002°51'1 1.6
2017-Sep-12 23:30N 04°32' W 002°51'3 5.7
2017-Sep-12 22:59N 04°35' W 002°52'1 2.8
2017-Sep-12 22:29N 04°36' W 002°52'1 1.2
2017-Sep-12 21:59N 04°36' W 002°53'0 0.5
2017-Sep-12 21:29N 04°36' W 002°53'2 3.7
2017-Sep-12 20:59N 04°35' W 002°51'0 0.8
2017-Sep-12 20:28N 04°35' W 002°52'1 1.7
2017-Sep-12 19:59N 04°34' W 002°51'1 1.5
2017-Sep-12 19:29N 04°35' W 002°51'1 1.9
2017-Sep-12 19:00N 04°35' W 002°52'1 1.9
2017-Sep-12 18:29N 04°36' W 002°52'1 1.5
2017-Sep-12 17:59N 04°37' W 002°52'1 1.6
2017-Sep-12 17:30N 04°36' W 002°52'1 2.0
2017-Sep-12 17:00N 04°35' W 002°53'1 1.0
2017-Sep-12 16:27N 04°35' W 002°53'1 1.5
2017-Sep-12 16:00N 04°35' W 002°53'0 0.5
2017-Sep-12 15:30N 04°36' W 002°53'0 0.0
2017-Sep-12 14:59N 04°36' W 002°53'0 0.2
2017-Sep-12 14:29N 04°36' W 002°53'0 0.0
2017-Sep-12 13:59N 04°36' W 002°53'0 0.0
2017-Sep-12 13:29N 04°36' W 002°53'0 0.0
2017-Sep-12 12:12N 04°36' W 002°53'0 0.0
2017-Sep-12 11:59N 04°36' W 002°53'0 0.0
2017-Sep-12 11:29N 04°36' W 002°53'0 0.0
2017-Sep-12 10:59N 04°36' W 002°53'0 0.0
2017-Sep-12 10:13N 04°36' W 002°53'0 0.0
2017-Sep-12 09:56N 04°36' W 002°53'0 0.0
2017-Sep-12 09:29N 04°36' W 002°53'0 0.1
2017-Sep-12 08:55N 04°36' W 002°53'0 0.2
2017-Sep-12 08:28N 04°36' W 002°53'0 0.2
2017-Sep-12 07:59N 04°36' W 002°53'1 2.7
2017-Sep-12 07:30N 04°35' W 002°54'3 2.3
2017-Sep-12 06:15N 04°37' W 002°56'0 0.8
2017-Sep-12 05:58N 04°37' W 002°56'2 0.5
2017-Sep-12 02:41N 04°37' W 002°54'0 1.8
2017-Sep-12 02:30N 04°37' W 002°54'1 0.4
2017-Sep-11 23:44N 04°37' W 002°55'4 0.7
2017-Sep-11 18:17N 04°36' W 002°52'1 4.5
2017-Sep-11 17:59N 04°36' W 002°53'0 0.1
2017-Sep-11 17:30N 04°36' W 002°53'0 0.1
2017-Sep-11 16:15N 04°36' W 002°53'0 0.1
2017-Sep-11 16:00N 04°36' W 002°53'0 0.0
2017-Sep-11 15:30N 04°36' W 002°53'0 0.0
2017-Sep-11 15:00N 04°36' W 002°53'0 0.0
2017-Sep-11 14:29N 04°36' W 002°53'0 0.0
2017-Sep-11 13:59N 04°36' W 002°53'0 0.0
2017-Sep-11 13:25N 04°36' W 002°53'1 1.1
2017-Sep-11 12:13N 04°36' W 002°54'0 1.8
2017-Sep-11 11:58N 04°36' W 002°54'0 0.5
2017-Sep-11 11:29N 04°37' W 002°54'0 0.2
2017-Sep-11 10:40N 04°36' W 002°54'0 2.4
2017-Sep-11 10:29N 04°37' W 002°54'1 0.9
2017-Sep-11 09:29N 04°36' W 002°54'1 1.5
2017-Sep-11 09:00N 04°37' W 002°54'1 1.5
2017-Sep-11 08:29N 04°36' W 002°54'2 0.5
2017-Sep-11 05:32N 04°37' W 002°56'0 1.2
2017-Sep-11 05:30N 04°37' W 002°56'1 1.2
2017-Sep-11 05:00N 04°37' W 002°56'4 0.5
2017-Sep-10 21:19N 04°36' W 002°52'3 1.8
2017-Sep-10 19:30N 04°37' W 002°55'1 1.9
2017-Sep-10 18:50N 04°38' W 002°55'1 2.4
2017-Sep-10 18:30N 04°39' W 002°55'2 4.5
2017-Sep-10 18:00N 04°36' W 002°56'1 2.1
2017-Sep-10 17:29N 04°36' W 002°55'1 2.2
2017-Sep-10 17:00N 04°36' W 002°54'1 1.3
2017-Sep-10 16:29N 04°36' W 002°54'1 1.2
2017-Sep-10 16:00N 04°35' W 002°54'1 0.6
2017-Sep-10 14:35N 04°34' W 002°55'1 1.1
2017-Sep-10 13:54N 04°35' W 002°56'1 2.5
2017-Sep-10 13:26N 04°36' W 002°56'1 2.5
2017-Sep-10 12:59N 04°37' W 002°56'1 1.1
2017-Sep-10 12:24N 04°37' W 002°56'  

Dump ship's entire track history